createdAt,value
2019-02-07T00:02:13.614Z,144.05
2019-02-07T00:04:44.380Z,163.35
2019-02-07T00:07:15.373Z,148.35
2019-02-07T00:09:46.068Z,149.77
2019-02-07T00:12:16.730Z,137.67
2019-02-07T00:14:47.493Z,136.57
2019-02-07T00:17:18.164Z,132.65
2019-02-07T00:19:49.235Z,150.70
2019-02-07T00:22:19.974Z,134.65
2019-02-07T00:24:50.757Z,129.40
2019-02-07T00:27:21.414Z,130.70
2019-02-07T00:29:52.106Z,129.23
2019-02-07T00:32:22.910Z,129.37
2019-02-07T00:34:53.782Z,121.42
2019-02-07T00:37:24.710Z,138.20
2019-02-07T00:39:55.474Z,126.80
2019-02-07T00:42:27.269Z,134.40
2019-02-07T00:44:57.973Z,118.65
2019-02-07T00:47:28.715Z,126.40
2019-02-07T00:49:59.477Z,119.90
2019-02-07T00:52:30.145Z,115.05
2019-02-07T00:55:00.847Z,111.92
2019-02-07T00:57:31.510Z,120.15
2019-02-07T01:00:02.585Z,109.78
2019-02-07T01:02:34.893Z,105.03
2019-02-07T01:05:08.607Z,102.60
2019-02-07T01:07:39.339Z,96.35
2019-02-07T01:10:12.887Z,97.78
2019-02-07T01:12:43.573Z,111.42
2019-02-07T01:15:15.977Z,102.82
2019-02-07T01:17:46.710Z,91.87
2019-02-07T01:20:17.471Z,99.22
2019-02-07T01:22:48.193Z,104.63
2019-02-07T01:25:23.368Z,97.40
2019-02-07T01:27:54.378Z,94.23
2019-02-07T01:30:27.257Z,91.80
2019-02-07T01:32:57.997Z,91.87
2019-02-07T01:35:29.527Z,84.35
2019-02-07T01:38:00.248Z,87.78
2019-02-07T01:40:31.024Z,84.77
2019-02-07T01:43:01.758Z,87.25
2019-02-07T01:45:32.432Z,90.85
2019-02-07T01:48:03.172Z,95.57
2019-02-07T01:50:34.402Z,90.05
2019-02-07T01:53:05.135Z,88.57
2019-02-07T01:55:35.903Z,85.50
2019-02-07T01:58:10.899Z,82.25
2019-02-07T02:00:41.653Z,80.37
2019-02-07T02:03:14.301Z,78.33
2019-02-07T02:05:46.499Z,80.30
2019-02-07T02:08:18.674Z,80.57
2019-02-07T02:10:49.364Z,71.10
2019-02-07T02:13:20.089Z,76.87
2019-02-07T02:15:51.154Z,73.77
2019-02-07T02:18:21.877Z,71.77
2019-02-07T02:20:52.563Z,75.12
2019-02-07T02:23:24.805Z,70.87
2019-02-07T02:25:55.582Z,68.60
2019-02-07T02:28:26.711Z,73.55
2019-02-07T02:30:57.467Z,72.85
2019-02-07T02:33:28.198Z,70.08
2019-02-07T02:35:59.890Z,70.42
2019-02-07T02:38:30.619Z,66.70
2019-02-07T02:41:01.303Z,65.52
2019-02-07T02:43:32.032Z,65.75
2019-02-07T02:46:02.725Z,66.12
2019-02-07T02:48:34.522Z,65.17
2019-02-07T02:51:05.213Z,66.37
2019-02-07T02:53:35.932Z,61.68
2019-02-07T02:56:06.958Z,59.87
2019-02-07T02:58:39.208Z,62.03
2019-02-07T03:01:21.110Z,58.38
2019-02-07T03:03:53.480Z,58.23
2019-02-07T03:06:28.962Z,59.63
2019-02-07T03:09:01.333Z,57.45
2019-02-07T03:11:44.106Z,57.00
2019-02-07T03:14:28.313Z,56.77
2019-02-07T03:17:06.482Z,59.70
2019-02-07T03:19:55.049Z,58.05
2019-02-07T03:22:39.606Z,56.53
2019-02-07T03:25:19.756Z,61.05
2019-02-07T03:28:08.497Z,61.28
2019-02-07T03:30:50.060Z,59.48
2019-02-07T03:33:34.310Z,105.90
2019-02-07T03:36:10.073Z,85.12
2019-02-07T03:38:46.874Z,78.00
2019-02-07T03:41:28.145Z,79.53
2019-02-07T03:44:01.981Z,83.17
2019-02-07T03:46:50.871Z,87.42
2019-02-07T03:49:24.687Z,74.97
2019-02-07T03:51:57.061Z,83.67
2019-02-07T03:54:49.228Z,78.30
2019-02-07T03:57:39.996Z,78.33
2019-02-07T04:00:15.796Z,80.10
2019-02-07T04:02:48.152Z,73.33
2019-02-07T04:05:20.534Z,80.40
2019-02-07T04:07:55.497Z,73.90
2019-02-07T04:10:30.463Z,74.82
2019-02-07T04:13:03.049Z,74.62
2019-02-07T04:15:53.602Z,80.07
2019-02-07T04:18:32.078Z,79.00
2019-02-07T04:21:07.293Z,76.20
2019-02-07T04:23:54.817Z,72.53
2019-02-07T04:26:29.792Z,74.25
2019-02-07T04:29:14.327Z,68.15
2019-02-07T04:32:03.184Z,67.62
2019-02-07T04:34:38.406Z,75.60
2019-02-07T04:37:11.414Z,73.92
2019-02-07T04:39:43.813Z,79.97
2019-02-07T04:42:16.189Z,70.20
2019-02-07T04:44:48.507Z,69.77
2019-02-07T04:47:30.119Z,68.42
2019-02-07T04:50:18.974Z,68.92
2019-02-07T04:52:59.245Z,66.93
2019-02-07T04:55:39.989Z,69.40
2019-02-07T04:58:15.166Z,71.00
2019-02-07T05:00:59.662Z,90.22
2019-02-07T05:03:43.773Z,87.57
2019-02-07T05:06:16.155Z,72.72
2019-02-07T05:08:48.538Z,70.45
2019-02-07T05:11:36.926Z,79.60
2019-02-07T05:14:21.208Z,98.75
2019-02-07T05:16:53.588Z,200.18
2019-02-07T05:19:42.588Z,221.10
2019-02-07T05:22:20.718Z,119.65
2019-02-07T05:24:59.075Z,217.25
2019-02-07T05:27:41.361Z,146.50
2019-02-07T05:30:21.758Z,187.07
2019-02-07T05:32:56.910Z,127.87
2019-02-07T05:35:32.151Z,109.90
2019-02-07T05:38:19.610Z,105.63
2019-02-07T05:41:01.192Z,101.03
2019-02-07T05:43:50.113Z,113.52
2019-02-07T05:46:29.938Z,89.57
2019-02-07T05:49:05.097Z,100.87
2019-02-07T05:51:44.877Z,86.67
2019-02-07T05:54:19.951Z,118.33
2019-02-07T05:56:53.838Z,92.55
2019-02-07T05:59:35.665Z,71.60
2019-02-07T06:02:08.246Z,72.25
2019-02-07T06:04:43.600Z,75.08
2019-02-07T06:07:32.305Z,77.20
2019-02-07T06:10:04.633Z,81.67
2019-02-07T06:12:42.725Z,89.20
2019-02-07T06:15:15.017Z,87.82
2019-02-07T06:17:53.034Z,95.80
2019-02-07T06:20:31.194Z,120.75
2019-02-07T06:23:09.322Z,207.12
2019-02-07T06:25:49.463Z,117.30
2019-02-07T06:28:24.939Z,116.17
2019-02-07T06:30:57.314Z,104.35
2019-02-07T06:33:32.413Z,103.67
2019-02-07T06:36:12.281Z,107.33
2019-02-07T06:38:54.618Z,96.22
2019-02-07T06:41:29.909Z,109.32
2019-02-07T06:44:17.759Z,246.22
2019-02-07T06:46:57.998Z,136.52
2019-02-07T06:49:30.333Z,112.77
2019-02-07T06:52:10.227Z,118.33
2019-02-07T06:54:58.837Z,129.72
2019-02-07T06:57:44.791Z,140.45
2019-02-07T07:00:32.008Z,96.32
2019-02-07T07:03:13.479Z,104.07
2019-02-07T07:06:02.073Z,124.40
2019-02-07T07:08:52.421Z,115.40
2019-02-07T07:11:27.670Z,122.55
2019-02-07T07:14:00.049Z,154.35
2019-02-07T07:16:35.353Z,154.70
2019-02-07T07:19:07.665Z,166.70
2019-02-07T07:21:51.805Z,172.57
2019-02-07T07:24:24.123Z,171.40
2019-02-07T07:27:00.701Z,129.03
2019-02-07T07:29:33.134Z,106.55
2019-02-07T07:32:22.466Z,114.03
2019-02-07T07:34:57.803Z,96.87
2019-02-07T07:37:32.893Z,98.33
2019-02-07T07:40:22.910Z,136.95
2019-02-07T07:43:10.271Z,87.62
2019-02-07T07:45:42.642Z,79.90
2019-02-07T07:48:24.158Z,86.57
2019-02-07T07:50:59.606Z,83.45
2019-02-07T07:53:40.817Z,74.97
2019-02-07T07:56:16.023Z,79.45
2019-02-07T07:59:06.804Z,81.10
2019-02-07T08:01:39.163Z,63.85
2019-02-07T08:04:17.363Z,72.70
2019-02-07T08:07:06.047Z,74.67
2019-02-07T08:09:38.406Z,71.90
2019-02-07T08:12:28.841Z,74.53
2019-02-07T08:15:07.272Z,121.85
2019-02-07T08:17:55.901Z,85.05
2019-02-07T08:20:31.215Z,84.13
2019-02-07T08:23:03.662Z,53.08
2019-02-07T08:25:38.738Z,57.73
2019-02-07T08:28:11.030Z,64.95
2019-02-07T08:30:43.323Z,66.45
2019-02-07T08:33:15.765Z,51.75
2019-02-07T08:35:54.407Z,52.10
2019-02-07T08:38:43.162Z,390.30
2019-02-07T08:41:22.414Z,258.20
2019-02-07T08:44:13.803Z,178.90
2019-02-07T08:47:00.547Z,72.17
2019-02-07T08:49:49.480Z,75.00
2019-02-07T08:52:27.906Z,73.52
2019-02-07T08:55:16.469Z,160.80
2019-02-07T08:58:03.908Z,123.78
2019-02-07T09:00:40.672Z,139.20
2019-02-07T09:03:19.200Z,208.40
2019-02-07T09:05:57.475Z,144.20
2019-02-07T09:08:32.883Z,150.65
2019-02-07T09:11:24.888Z,202.53
2019-02-07T09:14:00.118Z,335.95
2019-02-07T09:16:50.786Z,123.33
2019-02-07T09:19:40.178Z,81.78
2019-02-07T09:22:25.466Z,78.90
2019-02-07T09:25:00.654Z,139.62
2019-02-07T09:27:35.388Z,53.75
2019-02-07T09:30:22.869Z,135.85
2019-02-07T09:33:07.133Z,48.25
2019-02-07T09:35:41.983Z,52.67
2019-02-07T09:38:14.349Z,50.58
2019-02-07T09:40:52.837Z,52.15
2019-02-07T09:43:42.736Z,54.42
2019-02-07T09:46:30.390Z,60.65
2019-02-07T09:49:03.910Z,48.15
2019-02-07T09:51:36.257Z,47.98
2019-02-07T09:54:08.637Z,53.70
2019-02-07T09:56:49.957Z,51.53
2019-02-07T09:59:22.322Z,44.03
2019-02-07T10:01:54.730Z,46.75
2019-02-07T10:04:27.013Z,42.60
2019-02-07T10:07:05.354Z,46.53
2019-02-07T10:09:40.291Z,43.98
2019-02-07T10:12:15.718Z,44.70
2019-02-07T10:14:57.314Z,55.25
2019-02-07T10:17:29.682Z,40.58
2019-02-07T10:20:18.626Z,43.83
2019-02-07T10:23:07.188Z,42.40
2019-02-07T10:25:42.538Z,37.23
2019-02-07T10:28:21.293Z,41.05
2019-02-07T10:30:59.310Z,50.10
2019-02-07T10:33:37.424Z,42.58
2019-02-07T10:36:24.742Z,41.02
2019-02-07T10:39:06.112Z,45.50
2019-02-07T10:41:38.409Z,40.73
2019-02-07T10:44:17.245Z,35.05
2019-02-07T10:47:06.146Z,39.95
2019-02-07T10:49:59.230Z,42.70
2019-02-07T10:52:40.155Z,31.82
2019-02-07T10:55:13.662Z,32.23
2019-02-07T10:58:02.381Z,33.10
2019-02-07T11:00:37.255Z,33.58
2019-02-07T11:03:18.777Z,32.50
2019-02-07T11:06:06.146Z,30.35
2019-02-07T11:08:46.014Z,42.43
2019-02-07T11:11:33.633Z,49.13
2019-02-07T11:14:18.507Z,35.50
2019-02-07T11:17:07.170Z,35.35
2019-02-07T11:19:55.943Z,30.75
2019-02-07T11:22:30.925Z,23.05
2019-02-07T11:25:11.954Z,27.32
2019-02-07T11:27:53.283Z,28.55
2019-02-07T11:30:37.822Z,25.90
2019-02-07T11:33:10.118Z,34.03
2019-02-07T11:35:58.993Z,43.95
2019-02-07T11:38:48.696Z,29.18
2019-02-07T11:41:28.622Z,36.42
2019-02-07T11:44:00.986Z,31.82
2019-02-07T11:46:43.274Z,49.70
2019-02-07T11:49:21.366Z,45.23
2019-02-07T11:52:05.903Z,28.42
2019-02-07T11:54:38.211Z,25.40
2019-02-07T11:57:13.274Z,28.83
2019-02-07T11:59:54.617Z,36.03
2019-02-07T12:02:26.982Z,56.25
2019-02-07T12:04:59.288Z,44.30
2019-02-07T12:07:34.433Z,39.53
2019-02-07T12:10:10.062Z,37.25
2019-02-07T12:12:54.793Z,32.88
2019-02-07T12:15:28.642Z,37.38
2019-02-07T12:18:06.854Z,41.05
2019-02-07T12:20:57.774Z,44.98
2019-02-07T12:23:33.773Z,30.43
2019-02-07T12:26:18.074Z,35.88
2019-02-07T12:28:59.547Z,37.90
2019-02-07T12:31:38.009Z,43.55
2019-02-07T12:34:11.881Z,40.85
2019-02-07T12:36:53.614Z,39.05
2019-02-07T12:39:31.793Z,44.73
2019-02-07T12:42:20.026Z,43.55
2019-02-07T12:44:55.545Z,36.30
2019-02-07T12:47:33.933Z,40.00
2019-02-07T12:50:12.234Z,42.95
2019-02-07T12:52:53.662Z,185.48
2019-02-07T12:55:52.049Z,116.05
2019-02-07T12:58:32.750Z,146.28
2019-02-07T13:01:05.243Z,34.60
2019-02-07T13:03:43.724Z,36.33
2019-02-07T13:06:27.928Z,34.05
2019-02-07T13:09:18.135Z,32.63
2019-02-07T13:12:05.668Z,44.53
2019-02-07T13:14:42.253Z,56.53
2019-02-07T13:17:23.581Z,63.60
2019-02-07T13:19:58.744Z,45.55
2019-02-07T13:22:40.553Z,50.15
2019-02-07T13:25:14.484Z,50.23
2019-02-07T13:28:04.877Z,36.65
2019-02-07T13:30:49.410Z,49.10
2019-02-07T13:33:21.895Z,35.88
2019-02-07T13:35:54.321Z,31.60
2019-02-07T13:38:29.568Z,31.65
2019-02-07T13:41:06.802Z,34.55
2019-02-07T13:43:44.675Z,33.33
2019-02-07T13:46:22.987Z,41.40
2019-02-07T13:48:55.665Z,43.17
2019-02-07T13:51:36.830Z,46.85
2019-02-07T13:54:12.337Z,48.15
2019-02-07T13:56:47.773Z,49.03
2019-02-07T13:59:24.080Z,45.92
2019-02-07T14:01:59.286Z,61.70
2019-02-07T14:04:34.711Z,58.28
2019-02-07T14:07:19.955Z,56.13
2019-02-07T14:10:07.369Z,37.67
2019-02-07T14:12:45.681Z,70.03
2019-02-07T14:15:18.255Z,86.40
2019-02-07T14:17:50.716Z,169.25
2019-02-07T14:20:38.366Z,178.82
2019-02-07T14:23:29.808Z,95.42
2019-02-07T14:26:12.641Z,127.35
2019-02-07T14:29:01.624Z,127.82
2019-02-07T14:31:51.854Z,75.78
2019-02-07T14:34:30.200Z,148.38
2019-02-07T14:37:12.252Z,178.45
2019-02-07T14:39:50.714Z,114.17
2019-02-07T14:42:26.086Z,130.12
2019-02-07T14:45:13.741Z,123.53
2019-02-07T14:47:44.463Z,164.93
2019-02-07T14:50:15.401Z,126.30
2019-02-07T14:52:46.130Z,115.90
2019-02-07T14:55:17.022Z,114.22
2019-02-07T14:57:47.742Z,159.55
2019-02-07T15:00:21.645Z,120.62
2019-02-07T15:02:52.306Z,92.00
2019-02-07T15:05:24.098Z,94.32
2019-02-07T15:07:54.819Z,259.25
2019-02-07T15:10:25.476Z,158.93
2019-02-07T15:12:56.130Z,80.67
2019-02-07T15:15:28.334Z,134.20
2019-02-07T15:17:58.979Z,70.22
2019-02-07T15:20:29.633Z,105.90
2019-02-07T15:23:00.565Z,88.17
2019-02-07T15:25:31.219Z,135.37
2019-02-07T15:28:01.957Z,121.80
2019-02-07T15:30:32.616Z,121.75
2019-02-07T15:33:03.261Z,97.97
2019-02-07T15:35:40.005Z,100.45
2019-02-07T15:38:10.657Z,101.35
2019-02-07T15:40:42.385Z,108.47
2019-02-07T15:43:13.045Z,265.75
2019-02-07T15:45:45.221Z,217.15
2019-02-07T15:48:15.946Z,184.97
2019-02-07T15:50:46.606Z,153.00
2019-02-07T15:53:17.342Z,125.82
2019-02-07T15:55:48.012Z,173.13
2019-02-07T15:58:20.646Z,214.53
2019-02-07T16:00:52.954Z,269.80
2019-02-07T16:03:34.029Z,311.35
2019-02-07T16:06:06.671Z,208.78
2019-02-07T16:08:37.506Z,201.18
2019-02-07T16:11:08.163Z,178.72
2019-02-07T16:13:39.266Z,136.50
2019-02-07T16:16:10.017Z,137.28
2019-02-07T16:18:41.955Z,139.07
2019-02-07T16:21:12.860Z,169.90
2019-02-07T16:23:43.596Z,95.35
2019-02-07T16:26:14.694Z,146.28
2019-02-07T16:28:45.405Z,86.63
2019-02-07T16:31:17.765Z,199.10
2019-02-07T16:33:51.082Z,130.32
2019-02-07T16:36:21.821Z,168.30
2019-02-07T16:38:52.862Z,145.38
2019-02-07T16:41:23.593Z,76.37
2019-02-07T16:43:54.367Z,91.65
2019-02-07T16:46:25.258Z,82.60
2019-02-07T16:48:55.909Z,69.85
2019-02-07T16:51:28.422Z,67.72
2019-02-07T16:53:59.091Z,79.27
2019-02-07T16:56:29.822Z,173.95
2019-02-07T16:59:00.514Z,97.82
2019-02-07T17:01:32.324Z,184.65
2019-02-07T17:04:03.037Z,106.37
2019-02-07T17:06:33.816Z,75.45
2019-02-07T17:09:08.801Z,70.85
2019-02-07T17:11:39.481Z,99.40
2019-02-07T17:14:10.206Z,73.47
2019-02-07T17:16:40.952Z,61.05
2019-02-07T17:19:12.817Z,68.30
2019-02-07T17:21:43.494Z,93.22
2019-02-07T17:24:15.733Z,110.17
2019-02-07T17:26:46.432Z,123.22
2019-02-07T17:29:17.146Z,113.65
2019-02-07T17:31:47.903Z,168.78
2019-02-07T17:34:18.635Z,237.82
2019-02-07T17:36:49.359Z,269.62
2019-02-07T17:39:20.086Z,267.50
2019-02-07T17:41:50.910Z,207.07
2019-02-07T17:44:21.938Z,242.43
2019-02-07T17:46:54.301Z,213.35
2019-02-07T17:49:25.102Z,195.60
2019-02-07T17:51:55.889Z,215.87
2019-02-07T17:54:26.546Z,147.55
2019-02-07T17:56:58.816Z,239.80
2019-02-07T17:59:29.491Z,146.20
2019-02-07T18:02:00.314Z,138.50
2019-02-07T18:04:31.039Z,259.35
2019-02-07T18:07:01.723Z,157.93
2019-02-07T18:09:32.454Z,154.20
2019-02-07T18:12:03.146Z,472.52
2019-02-07T18:14:36.993Z,277.62
2019-02-07T18:17:07.682Z,96.97
2019-02-07T18:19:38.402Z,120.30
2019-02-07T18:22:09.165Z,105.35
2019-02-07T18:24:40.093Z,123.38
2019-02-07T18:27:10.843Z,79.30
2019-02-07T18:29:43.181Z,64.17
2019-02-07T18:32:14.949Z,63.65
2019-02-07T18:34:45.614Z,73.45
2019-02-07T18:37:18.057Z,81.10
2019-02-07T18:39:48.719Z,130.67
2019-02-07T18:42:25.562Z,92.00
2019-02-07T18:44:56.345Z,83.20
2019-02-07T18:47:27.221Z,71.02
2019-02-07T18:49:58.284Z,77.90
2019-02-07T18:52:29.355Z,96.15
2019-02-07T18:55:00.293Z,84.97
2019-02-07T18:57:31.045Z,114.97
2019-02-07T19:00:01.702Z,76.35
2019-02-07T19:02:32.958Z,105.32
2019-02-07T19:05:05.727Z,85.50
2019-02-07T19:07:36.481Z,100.97
2019-02-07T19:10:10.168Z,143.40
2019-02-07T19:12:41.427Z,158.22
2019-02-07T19:15:17.794Z,127.15
2019-02-07T19:17:48.558Z,141.77
2019-02-07T19:20:19.685Z,151.25
2019-02-07T19:22:50.378Z,190.57
2019-02-07T19:25:21.131Z,233.72
2019-02-07T19:27:52.872Z,218.90
2019-02-07T19:30:31.459Z,169.82
2019-02-07T19:33:03.339Z,162.68
2019-02-07T19:35:34.147Z,146.43
2019-02-07T19:38:04.916Z,151.00
2019-02-07T19:40:35.649Z,225.35
2019-02-07T19:43:07.431Z,306.50
2019-02-07T19:45:39.618Z,325.57
2019-02-07T19:48:10.413Z,432.88
2019-02-07T19:50:41.225Z,452.55
2019-02-07T19:53:12.406Z,509.25
2019-02-07T19:55:43.070Z,467.87
2019-02-07T19:58:13.843Z,623.52
2019-02-07T20:00:44.522Z,433.77
2019-02-07T20:03:15.315Z,308.07
2019-02-07T20:05:46.058Z,365.05
2019-02-07T20:08:17.149Z,283.62
2019-02-07T20:10:49.489Z,271.95
2019-02-07T20:13:20.311Z,468.57
2019-02-07T20:15:50.987Z,362.30
2019-02-07T20:18:21.838Z,332.20
2019-02-07T20:20:54.158Z,375.62
2019-02-07T20:23:25.001Z,312.48
2019-02-07T20:25:55.757Z,290.48
2019-02-07T20:28:26.516Z,230.20
2019-02-07T20:30:57.246Z,234.00
2019-02-07T20:33:27.941Z,208.35
2019-02-07T20:35:58.674Z,194.70
2019-02-07T20:38:29.738Z,194.52
2019-02-07T20:41:00.467Z,226.60
2019-02-07T20:43:32.743Z,299.50
2019-02-07T20:46:03.476Z,303.45
2019-02-07T20:48:34.323Z,306.90
2019-02-07T20:51:05.067Z,272.67
2019-02-07T20:53:35.930Z,214.45
2019-02-07T20:56:06.674Z,211.90
2019-02-07T20:58:37.446Z,184.13
2019-02-07T21:01:08.187Z,184.00
2019-02-07T21:03:39.023Z,171.77
2019-02-07T21:06:11.299Z,148.97
2019-02-07T21:08:42.066Z,130.35
2019-02-07T21:11:12.811Z,124.92
2019-02-07T21:13:43.602Z,111.70
2019-02-07T21:16:14.326Z,111.60
2019-02-07T21:18:45.095Z,109.72
2019-02-07T21:21:16.137Z,105.58
2019-02-07T21:23:46.978Z,108.17
2019-02-07T21:26:17.662Z,111.28
2019-02-07T21:28:48.430Z,105.47
2019-02-07T21:31:19.169Z,106.33
2019-02-07T21:33:49.937Z,119.65
2019-02-07T21:36:20.962Z,119.85
2019-02-07T21:38:51.714Z,123.62
2019-02-07T21:41:22.451Z,124.35
2019-02-07T21:43:53.149Z,124.90
2019-02-07T21:46:23.882Z,131.95
2019-02-07T21:48:54.574Z,127.20
2019-02-07T21:51:25.515Z,145.40
2019-02-07T21:53:58.141Z,128.30
2019-02-07T21:56:28.906Z,123.97
2019-02-07T21:58:59.599Z,136.25
2019-02-07T22:01:30.409Z,129.05
2019-02-07T22:04:01.475Z,141.57
2019-02-07T22:06:32.227Z,214.50
2019-02-07T22:09:04.568Z,202.60
2019-02-07T22:11:36.390Z,187.35
2019-02-07T22:14:07.156Z,201.20
2019-02-07T22:16:38.298Z,227.72
2019-02-07T22:19:10.583Z,252.90
2019-02-07T22:21:41.326Z,258.80
2019-02-07T22:24:12.096Z,251.02
2019-02-07T22:26:42.761Z,215.10
2019-02-07T22:29:13.456Z,226.98
2019-02-07T22:31:44.201Z,209.12
2019-02-07T22:34:16.038Z,207.80
2019-02-07T22:36:46.859Z,182.53
2019-02-07T22:39:17.622Z,174.23
2019-02-07T22:41:48.283Z,217.77
2019-02-07T22:44:19.426Z,293.15
2019-02-07T22:46:50.098Z,335.05
2019-02-07T22:49:20.871Z,317.57
2019-02-07T22:51:51.630Z,233.63
2019-02-07T22:54:23.137Z,202.45
2019-02-07T22:56:53.801Z,159.12
2019-02-07T22:59:24.495Z,155.00
2019-02-07T23:01:55.229Z,152.07
2019-02-07T23:04:27.433Z,133.75
2019-02-07T23:06:59.613Z,114.92
2019-02-07T23:09:30.379Z,111.15
2019-02-07T23:12:01.126Z,117.50
2019-02-07T23:14:31.918Z,120.67
2019-02-07T23:17:02.609Z,123.35
2019-02-07T23:19:33.506Z,124.65
2019-02-07T23:22:05.756Z,123.65
2019-02-07T23:24:36.717Z,118.50
2019-02-07T23:27:07.454Z,114.45
2019-02-07T23:29:38.234Z,116.00
2019-02-07T23:32:08.970Z,126.25
2019-02-07T23:34:39.662Z,145.40
2019-02-07T23:37:10.879Z,141.65
2019-02-07T23:39:41.602Z,138.50
2019-02-07T23:42:12.313Z,155.45
2019-02-07T23:44:43.014Z,171.75
2019-02-07T23:47:13.749Z,204.65
2019-02-07T23:49:44.436Z,203.65
2019-02-07T23:52:16.734Z,187.35
2019-02-07T23:54:48.552Z,195.30
2019-02-07T23:57:19.294Z,210.00
2019-02-07T23:59:50.167Z,194.82
